Time;durP1;ratioP1;P1;durP2;ratioP2;P2;SDS_P1;SDS_P2;PMS_P1;PMS_P2;Temp;Humidity;BMP_temperature;BMP_pressure;BME280_temperature;BME280_humidity;BME280_pressure;Samples;Min_cycle;Max_cycle;Signal;HPM_P1;HPM_P2
2023/04/13 00:02:54;;;;;;;59.60;32.90;;;;;;;1.16;90.86;97924.79;273116;1266;22593;-87
2023/04/13 00:09:01;;;;;;;56.90;30.00;;;;;;;1.09;91.24;97913.81;273707;1266;23028;-87
2023/04/13 00:15:09;;;;;;;47.80;26.20;;;;;;;1.10;91.92;97901.60;273661;1266;22451;-87
2023/04/13 00:21:15;;;;;;;53.60;28.90;;;;;;;1.07;91.57;97895.90;273222;1254;22547;-87
2023/04/13 00:27:17;;;;;;;;;;;;;;;0.90;91.27;97896.21;273504;1267;22551;-87
2023/04/13 00:33:19;;;;;;;61.50;35.40;;;;;;;0.88;92.01;97892.17;272877;1267;25085;-86
2023/04/13 00:39:47;;;;;;;64.60;32.80;;;;;;;0.85;92.29;97895.96;273656;1266;22319;-86
2023/04/13 00:45:52;;;;;;;56.20;30.50;;;;;;;0.78;92.45;97898.60;272027;1267;23600;-86
2023/04/13 00:51:55;;;;;;;59.40;31.10;;;;;;;0.78;92.72;97899.42;271235;1267;23346;-85
2023/04/13 00:58:14;;;;;;;70.70;36.60;;;;;;;0.78;92.86;97901.04;270702;1256;22263;-86
2023/04/13 01:04:36;;;;;;;65.10;34.00;;;;;;;0.78;93.05;97902.77;272114;1267;25279;-85
2023/04/13 01:11:42;;;;;;;59.00;32.70;;;;;;;0.72;93.21;97908.56;270487;1261;25088;-86
2023/04/13 01:17:55;;;;;;;65.20;33.00;;;;;;;0.73;93.31;97913.90;271408;1258;22521;-85
2023/04/13 01:24:16;;;;;;;79.30;40.50;;;;;;;0.61;93.03;97914.39;270307;1268;22567;-87
2023/04/13 01:30:27;;;;;;;80.00;41.10;;;;;;;0.51;93.15;97917.33;271204;1268;23208;-86
2023/04/13 01:36:32;;;;;;;86.40;43.60;;;;;;;0.49;93.77;97928.81;269506;1268;22517;-86
2023/04/13 01:42:37;;;;;;;74.70;39.20;;;;;;;0.50;93.88;97926.83;269929;1267;22612;-85
2023/04/13 01:48:48;;;;;;;76.10;40.10;;;;;;;0.50;94.15;97922.14;269923;1260;22479;-85
2023/04/13 01:55:22;;;;;;;65.60;36.40;;;;;;;0.49;94.33;97920.89;268554;1275;22223;-87
2023/04/13 02:01:27;;;;;;;70.20;37.30;;;;;;;0.49;94.67;97918.52;269832;1268;22555;-87
2023/04/13 02:07:33;;;;;;;69.70;38.70;;;;;;;0.44;94.21;97912.71;272233;1268;22844;-89
2023/04/13 02:13:37;;;;;;;61.70;32.30;;;;;;;0.29;94.10;97909.31;270161;1268;22540;-86
2023/04/13 02:19:52;;;;;;;66.90;33.70;;;;;;;0.27;94.95;97911.38;271027;1268;23071;-87
2023/04/13 02:25:54;;;;;;;77.70;38.10;;;;;;;0.28;94.96;97922.12;270138;1259;23439;-86
2023/04/13 02:32:57;;;;;;;74.00;36.10;;;;;;;0.21;94.72;97928.48;270619;1264;22779;-86
2023/04/13 02:39:13;;;;;;;87.40;40.70;;;;;;;0.18;95.01;97922.36;270577;1268;22480;-86
2023/04/13 02:45:18;;;;;;;76.20;35.60;;;;;;;0.16;95.14;97921.88;269836;1268;22583;-87
2023/04/13 02:51:48;;;;;;;79.60;40.30;;;;;;;0.13;95.33;97930.27;269929;1269;22563;-86
2023/04/13 02:57:52;;;;;;;76.50;37.70;;;;;;;0.13;95.74;97930.98;272227;1270;22434;-86
2023/04/13 03:03:55;;;;;;;83.40;39.80;;;;;;;0.15;95.80;97925.67;271426;1266;22589;-87
2023/04/13 03:10:22;;;;;;;77.40;39.60;;;;;;;0.15;95.91;97917.66;269431;1267;22606;-85
2023/04/13 03:16:27;;;;;;;79.20;38.30;;;;;;;0.19;96.29;97917.02;270112;1270;22570;-86
2023/04/13 03:22:31;;;;;;;74.10;35.60;;;;;;;0.25;96.68;97913.38;270146;1265;23337;-86
2023/04/13 03:28:51;;;;;;;64.50;33.80;;;;;;;0.30;96.80;97911.02;270079;1268;22743;-86
2023/04/13 03:34:54;;;;;;;61.10;31.70;;;;;;;0.37;97.34;97914.70;271064;1258;22569;-85
2023/04/13 03:41:26;;;;;;;64.30;32.90;;;;;;;0.47;97.56;97911.91;270274;1268;22550;-85
2023/04/13 03:47:40;;;;;;;52.90;30.00;;;;;;;0.55;97.88;97905.17;270021;1266;22557;-86
2023/04/13 03:53:43;;;;;;;60.50;30.10;;;;;;;0.64;98.16;97905.77;271653;1268;25959;-86
2023/04/13 03:59:53;;;;;;;62.40;32.80;;;;;;;0.76;98.49;97907.61;271644;1263;23450;-86
2023/04/13 04:06:30;;;;;;;57.40;30.70;;;;;;;0.92;98.69;97914.04;271663;1267;22745;-86
2023/04/13 04:13:09;;;;;;;53.40;29.50;;;;;;;0.97;98.53;97914.06;270412;1258;22522;-86
2023/04/13 04:19:23;;;;;;;73.10;36.70;;;;;;;1.04;99.16;97918.37;271200;1269;25319;-84
2023/04/13 04:25:26;;;;;;;77.80;36.40;;;;;;;1.17;99.50;97914.21;271007;1268;22510;-85
2023/04/13 04:31:33;;;;;;;68.70;34.10;;;;;;;1.33;99.80;97914.07;270600;1268;22793;-87
2023/04/13 04:38:03;;;;;;;63.60;34.20;;;;;;;1.52;100.00;97916.11;271689;1267;22566;-85
2023/04/13 04:44:07;;;;;;;71.50;37.10;;;;;;;1.70;100.00;97918.37;271145;1267;22598;-86
2023/04/13 04:50:20;;;;;;;85.20;41.00;;;;;;;1.88;100.00;97911.16;270162;1261;22176;-88
2023/04/13 04:56:34;;;;;;;67.80;36.70;;;;;;;2.03;100.00;97907.73;269941;1269;24341;-85
2023/04/13 05:02:45;;;;;;;70.60;37.20;;;;;;;2.21;100.00;97905.67;272205;1269;22540;-86
2023/04/13 05:08:53;;;;;;;72.50;38.60;;;;;;;2.42;100.00;97910.00;272893;1271;22335;-86
2023/04/13 05:15:17;;;;;;;70.30;38.00;;;;;;;2.65;100.00;97911.74;271829;1266;22548;-86
2023/04/13 05:21:20;;;;;;;70.50;38.40;;;;;;;2.90;100.00;97908.57;270544;1267;24076;-86
2023/04/13 05:27:29;;;;;;;75.70;38.30;;;;;;;3.17;100.00;97915.73;273048;1269;23433;-86
2023/04/13 05:34:12;;;;;;;95.30;52.90;;;;;;;3.49;100.00;97915.77;271610;1268;22500;-88
2023/04/13 05:40:41;;;;;;;77.90;43.50;;;;;;;3.80;100.00;97914.79;273438;1271;141254;-86
2023/04/13 05:46:52;;;;;;;81.20;44.00;;;;;;;4.07;100.00;97911.55;272597;1268;22565;-86
2023/04/13 05:52:56;;;;;;;80.20;44.50;;;;;;;4.51;100.00;97912.73;269942;1267;22539;-86
2023/04/13 05:59:03;;;;;;;73.20;41.20;;;;;;;5.07;100.00;97919.69;271712;1268;22375;-87
2023/04/13 06:05:06;;;;;;;66.20;35.90;;;;;;;5.44;100.00;97920.64;272785;1270;22314;-86
2023/04/13 06:11:10;;;;;;;65.30;36.80;;;;;;;5.67;100.00;97922.80;270138;1267;22511;-87
2023/04/13 06:17:40;;;;;;;69.40;37.30;;;;;;;5.91;100.00;97921.11;271699;1267;22559;-87
2023/04/13 06:23:43;;;;;;;57.00;33.30;;;;;;;6.28;100.00;97924.42;271055;1268;22560;-88
2023/04/13 06:30:15;;;;;;;60.40;35.00;;;;;;;6.59;100.00;97921.64;273863;1267;22330;-88
2023/04/13 06:36:31;;;;;;;59.50;31.20;;;;;;;6.95;100.00;97921.02;273926;1270;23432;-88
2023/04/13 06:43:08;;;;;;;;;;;;;;;;;;;;;
2023/04/13 06:49:32;;;;;;;51.50;31.40;;;;;;;7.40;99.10;97924.48;270059;1272;22921;-87
2023/04/13 06:56:23;;;;;;;47.40;29.20;;;;;;;7.63;98.81;97927.26;270513;1272;25236;-86
2023/04/13 07:02:42;;;;;;;;;;;;;;;;;;;;;
2023/04/13 07:09:37;;;;;;;44.70;27.50;;;;;;;8.36;98.43;97931.01;270365;1265;22657;-88
2023/04/13 07:16:16;;;;;;;46.90;27.90;;;;;;;8.80;97.94;97927.98;271675;1268;22448;-87
2023/04/13 07:22:57;;;;;;;38.10;24.50;;;;;;;9.22;97.23;97926.20;271543;1267;22547;-87
2023/04/13 07:29:12;;;;;;;36.60;23.60;;;;;;;9.63;96.40;97920.59;270550;1269;23420;-87
2023/04/13 07:35:20;;;;;;;36.20;22.10;;;;;;;10.03;95.49;97917.75;269764;1268;23925;-87
2023/04/13 07:41:34;;;;;;;36.80;22.30;;;;;;;10.44;94.87;97917.17;269294;1268;22559;-88
2023/04/13 07:48:46;;;;;;;35.90;21.10;;;;;;;10.71;93.81;97916.86;271935;1268;22188;-87
2023/04/13 07:55:06;;;;;;;35.00;21.70;;;;;;;11.07;93.52;97916.59;273471;1257;22438;-88
2023/04/13 08:01:29;;;;;;;32.40;21.40;;;;;;;11.54;93.38;97915.16;271411;1258;22663;-88
2023/04/13 08:07:45;;;;;;;35.40;21.10;;;;;;;11.93;92.78;97915.71;272840;1269;22686;-88
2023/04/13 08:14:36;;;;;;;32.30;21.30;;;;;;;12.28;91.63;97918.66;272234;1267;25284;-88
2023/04/13 08:20:41;;;;;;;33.50;19.90;;;;;;;12.55;91.26;97923.46;272318;1272;22546;-88
2023/04/13 08:27:37;;;;;;;34.30;22.20;;;;;;;12.82;90.46;97918.14;272369;1272;24201;-88
2023/04/13 08:33:49;;;;;;;24.70;15.10;;;;;;;13.16;89.17;97921.00;269251;1262;22543;-88
2023/04/13 08:39:55;;;;;;;20.00;13.30;;;;;;;13.43;87.18;97921.25;270814;1272;22564;-87
2023/04/13 08:46:05;;;;;;;20.50;12.80;;;;;;;13.77;85.68;97923.99;268823;1272;22555;-88
2023/04/13 08:52:54;;;;;;;18.10;9.80;;;;;;;14.14;84.69;97919.45;269533;1272;22561;-89
2023/04/13 08:59:40;;;;;;;15.20;9.20;;;;;;;14.59;82.53;97912.30;270638;1267;21755;-89
2023/04/13 09:14:37;;;;;;;13.90;9.20;;;;;;;15.19;79.06;97910.27;273837;1267;22338;-88
2023/04/13 09:21:21;;;;;;;;;;;;;;;;;;;;;
2023/04/13 09:27:58;;;;;;;16.20;8.30;;;;;;;16.77;78.82;97901.33;272728;1272;22347;-90
2023/04/13 09:34:15;;;;;;;12.70;7.60;;;;;;;17.63;76.47;97903.20;272424;1273;22331;-88
2023/04/13 09:41:16;;;;;;;10.30;5.20;;;;;;;18.73;72.18;97900.61;272582;1273;23320;-90
2023/04/13 09:47:37;;;;;;;11.60;5.80;;;;;;;19.71;67.99;97899.06;272566;1274;22372;-88
2023/04/13 09:53:55;;;;;;;;;;;;;;;;;;;;;
2023/04/13 10:00:20;;;;;;;8.70;5.00;;;;;;;19.29;62.99;97900.63;270351;1269;22507;-89
2023/04/13 10:06:24;;;;;;;7.60;4.40;;;;;;;18.98;61.38;97899.17;270143;1268;22551;-90
2023/04/13 10:12:27;;;;;;;7.70;4.90;;;;;;;19.03;61.33;97896.54;270218;1254;22554;-89
2023/04/13 10:19:00;;;;;;;5.90;4.80;;;;;;;18.95;60.93;97896.99;273351;1257;22413;-89
2023/04/13 10:25:06;;;;;;;5.20;3.30;;;;;;;19.20;59.55;97894.46;272438;1270;22522;-88
2023/04/13 10:31:17;;;;;;;6.70;4.00;;;;;;;20.01;58.67;97888.26;272322;1267;22353;-89
2023/04/13 10:37:24;;;;;;;9.20;4.90;;;;;;;20.11;56.51;97883.63;273102;1267;24094;-89
2023/04/13 10:43:38;;;;;;;7.20;4.70;;;;;;;20.20;57.18;97873.79;270402;1267;23737;-89
2023/04/13 10:49:44;;;;;;;7.10;4.50;;;;;;;20.07;53.69;97870.30;270694;1267;22674;-87
2023/04/13 10:56:36;;;;;;;;;;;;;;;;;;;;;
2023/04/13 11:03:13;;;;;;;6.30;4.10;;;;;;;20.35;51.84;97867.20;270584;1267;22578;-90
2023/04/13 11:09:15;;;;;;;4.80;3.40;;;;;;;21.00;50.94;97865.42;272220;1267;23525;-90
2023/04/13 11:15:39;;;;;;;7.60;3.30;;;;;;;21.35;49.97;97862.13;270788;1267;22545;-89
2023/04/13 11:22:04;;;;;;;;;;;;;;;;;;;;;
2023/04/13 11:28:11;;;;;;;4.90;2.80;;;;;;;21.54;46.11;97860.33;272301;1267;22557;-90
2023/04/13 11:34:34;;;;;;;3.90;2.50;;;;;;;21.22;43.36;97859.27;272982;1267;25259;-91
2023/04/13 11:41:26;;;;;;;4.10;2.60;;;;;;;21.00;42.66;97862.02;273725;1267;22414;-91
2023/04/13 11:47:49;;;;;;;3.60;1.90;;;;;;;21.21;43.22;97856.61;272980;1270;22378;-91
2023/04/13 11:53:54;;;;;;;4.50;2.30;;;;;;;21.72;43.28;97844.10;271878;1270;22715;-91
2023/04/13 11:59:58;;;;;;;4.90;3.20;;;;;;;21.85;41.70;97829.27;271969;1271;22524;-90
2023/04/13 12:06:03;;;;;;;4.60;2.50;;;;;;;21.53;41.87;97821.02;272061;1270;22356;-90
2023/04/13 12:12:36;;;;;;;3.80;2.10;;;;;;;20.85;41.37;97818.59;270140;1271;22593;-91
2023/04/13 12:18:42;;;;;;;5.30;2.90;;;;;;;20.48;41.35;97808.80;272098;1267;23044;-90
2023/04/13 12:24:45;;;;;;;3.10;1.90;;;;;;;20.40;41.63;97808.81;272885;1258;22522;-89
2023/04/13 12:30:53;;;;;;;3.00;2.10;;;;;;;20.56;41.93;97819.06;273425;1267;22621;-89
2023/04/13 12:36:58;;;;;;;4.70;2.70;;;;;;;20.54;41.06;97816.73;273037;1267;24367;-88
2023/04/13 12:43:00;;;;;;;7.00;2.70;;;;;;;20.42;41.14;97805.45;273420;1267;22362;-90
2023/04/13 12:49:09;;;;;;;4.30;2.60;;;;;;;20.48;41.21;97804.77;270449;1266;22550;-89
2023/04/13 12:55:18;;;;;;;8.60;3.30;;;;;;;20.12;40.95;97807.55;270332;1267;22522;-89
2023/04/13 13:01:27;;;;;;;4.50;2.60;;;;;;;19.40;40.73;97807.16;270656;1261;22562;-89
2023/04/13 13:07:30;;;;;;;4.60;2.80;;;;;;;18.93;41.22;97807.39;272266;1267;22411;-88
2023/04/13 13:13:32;;;;;;;13.90;3.70;;;;;;;18.65;41.58;97802.50;273742;1267;22310;-89
2023/04/13 13:19:40;;;;;;;6.80;2.90;;;;;;;18.48;41.85;97804.73;273534;1267;22185;-89
2023/04/13 13:25:45;;;;;;;5.40;2.60;;;;;;;18.33;42.18;97803.89;272612;1267;22947;-89
2023/04/13 13:31:51;;;;;;;4.10;2.40;;;;;;;18.26;41.99;97809.35;270922;1267;25448;-87
2023/04/13 13:37:55;;;;;;;2.80;2.20;;;;;;;18.07;42.08;97813.70;269802;1267;22564;-90
2023/04/13 13:43:58;;;;;;;3.10;2.30;;;;;;;17.87;42.50;97815.63;273091;1267;22216;-88
2023/04/13 13:50:01;;;;;;;6.70;2.70;;;;;;;17.70;42.43;97818.86;272862;1267;25053;-88
2023/04/13 13:56:48;;;;;;;5.50;2.90;;;;;;;17.49;42.76;97818.27;271230;1267;23065;-87
2023/04/13 14:03:27;;;;;;;4.80;2.20;;;;;;;17.34;43.22;97818.13;270755;1268;22562;-89
2023/04/13 14:10:31;;;;;;;4.40;2.70;;;;;;;17.20;43.59;97824.86;270742;1266;22622;-87
2023/04/13 14:16:34;;;;;;;6.80;2.90;;;;;;;17.01;43.83;97828.94;271768;1267;22302;-87
2023/04/13 14:23:07;;;;;;;3.80;2.10;;;;;;;16.86;44.06;97832.70;273281;1267;22914;-87
2023/04/13 14:30:05;;;;;;;;;;;;;;;;;;;;;
2023/04/13 14:37:32;;;;;;;6.00;2.20;;;;;;;16.54;44.71;97844.61;273784;1266;22264;-88
2023/04/13 14:50:28;;;;;;;10.40;4.50;;;;;;;16.33;47.05;97869.45;272255;1267;22552;-91
2023/04/13 14:57:16;;;;;;;12.80;5.90;;;;;;;15.80;48.44;97875.93;270036;1266;22499;-90
2023/04/13 15:03:44;;;;;;;13.60;5.70;;;;;;;15.26;50.46;97887.66;271046;1267;24050;-90
2023/04/13 15:09:54;;;;;;;12.50;6.50;;;;;;;14.85;51.76;97899.42;270484;1267;23322;-91
2023/04/13 15:16:22;;;;;;;16.20;6.70;;;;;;;14.53;52.91;97905.44;270259;1259;23301;-89
2023/04/13 15:22:34;;;;;;;14.00;6.40;;;;;;;14.18;53.95;97918.89;270109;1266;22500;-92
2023/04/13 15:28:38;;;;;;;10.70;6.70;;;;;;;13.93;54.80;97932.91;270189;1267;22550;-91
2023/04/13 15:34:40;;;;;;;13.00;7.70;;;;;;;13.67;55.75;97941.02;270065;1266;22756;-93
2023/04/13 15:40:43;;;;;;;14.40;6.70;;;;;;;13.47;56.71;97943.73;270239;1266;22712;-91
2023/04/13 15:47:33;;;;;;;15.00;6.80;;;;;;;13.31;57.48;97949.33;270351;1267;23367;-92
2023/04/13 15:53:36;;;;;;;13.20;7.70;;;;;;;13.19;58.87;97949.14;270687;1267;22510;-92
2023/04/13 15:59:44;;;;;;;12.70;8.10;;;;;;;13.10;59.72;97944.34;270834;1267;22625;-89
2023/04/13 16:06:17;;;;;;;;;;;;;;;;;;;;;
2023/04/13 16:12:48;;;;;;;15.20;8.60;;;;;;;12.87;61.96;97951.80;264416;1267;10002351;-91
2023/04/13 16:19:28;;;;;;;14.10;9.30;;;;;;;12.71;63.43;97958.61;271305;1266;22563;-91
2023/04/13 16:25:34;;;;;;;15.50;9.10;;;;;;;12.53;64.75;97972.59;273120;1266;23453;-90
2023/04/13 16:32:23;;;;;;;15.70;9.80;;;;;;;12.40;66.37;97978.09;273318;1268;23006;-91
2023/04/13 16:38:25;;;;;;;19.00;10.30;;;;;;;12.26;67.11;97979.34;272926;1268;22962;-91
2023/04/13 16:44:32;;;;;;;16.10;11.30;;;;;;;12.11;67.88;97991.20;273520;1267;23397;-90
2023/04/13 16:51:31;;;;;;;21.60;12.50;;;;;;;11.94;69.13;97993.81;273694;1257;23205;-91
2023/04/13 16:58:06;;;;;;;22.00;12.20;;;;;;;11.86;69.38;97996.08;272061;1267;22332;-93
2023/04/13 17:04:22;;;;;;;24.20;13.00;;;;;;;11.77;70.53;98012.48;272740;1268;22521;-91
2023/04/13 17:10:28;;;;;;;20.40;12.50;;;;;;;11.70;71.11;98017.55;271201;1268;22344;-91
2023/04/13 17:17:00;;;;;;;19.40;12.60;;;;;;;11.61;71.92;98022.93;273313;1267;22709;-91
2023/04/13 17:23:25;;;;;;;22.10;13.00;;;;;;;11.50;72.84;98033.05;272188;1267;22450;-91
2023/04/13 17:29:35;;;;;;;17.60;10.90;;;;;;;11.38;73.65;98042.60;273762;1268;22949;-91
2023/04/13 17:35:38;;;;;;;19.00;12.80;;;;;;;11.31;74.11;98047.98;273381;1266;406160;-91
2023/04/13 17:41:48;;;;;;;17.20;11.70;;;;;;;11.23;74.78;98052.52;273215;1267;22197;-91
2023/04/13 17:48:31;;;;;;;20.90;13.10;;;;;;;11.16;75.36;98061.92;273729;1258;23164;-90
2023/04/13 17:55:02;;;;;;;22.20;13.50;;;;;;;11.08;76.22;98067.85;273835;1267;22318;-93
2023/04/13 18:01:36;;;;;;;22.80;16.60;;;;;;;11.00;76.65;98081.58;273275;1267;23803;-89
2023/04/13 18:08:59;;;;;;;22.90;16.50;;;;;;;10.93;77.55;98088.50;271350;1266;22547;-91
2023/04/13 18:15:20;;;;;;;26.50;18.60;;;;;;;10.81;77.96;98102.86;273409;1267;22434;-91
2023/04/13 18:22:05;;;;;;;27.90;18.10;;;;;;;10.70;78.63;98109.88;273125;1267;22346;-94
2023/04/13 18:28:08;;;;;;;;;;;;;;;10.59;79.62;98113.90;273787;1267;22425;-90
2023/04/13 18:34:20;;;;;;;29.40;20.20;;;;;;;10.49;80.60;98120.73;273095;1266;22695;-90
2023/04/13 18:40:49;;;;;;;30.80;20.80;;;;;;;10.41;81.23;98118.55;273856;1267;22543;-90
2023/04/13 18:47:34;;;;;;;27.70;21.20;;;;;;;10.35;82.04;98122.86;273407;1267;22275;-92
2023/04/13 18:54:33;;;;;;;;;;;;;;;;;;;;;
2023/04/13 19:00:51;;;;;;;29.10;22.00;;;;;;;10.20;83.57;98129.46;272147;1268;22251;-90
2023/04/13 19:07:22;;;;;;;33.90;24.40;;;;;;;10.12;84.50;98132.98;273808;1267;22890;-90
2023/04/13 19:13:24;;;;;;;36.40;24.30;;;;;;;10.06;85.27;98141.73;272412;1268;22260;-90
2023/04/13 19:20:09;;;;;;;35.80;25.00;;;;;;;10.01;85.63;98144.52;271006;1268;22627;-90
2023/04/13 19:26:34;;;;;;;33.40;25.20;;;;;;;9.94;86.29;98147.09;271317;1268;22506;-88
2023/04/13 19:32:40;;;;;;;38.30;25.80;;;;;;;9.88;86.93;98144.98;272192;1268;22317;-90
2023/04/13 19:39:28;;;;;;;39.40;26.40;;;;;;;9.80;87.41;98146.08;273517;1267;22326;-91
2023/04/13 19:46:18;;;;;;;32.90;26.30;;;;;;;9.75;87.79;98149.91;272744;1268;22553;-89
2023/04/13 19:52:38;;;;;;;38.50;27.40;;;;;;;9.73;87.73;98146.46;270564;1267;23865;-90
2023/04/13 19:58:43;;;;;;;38.20;26.30;;;;;;;9.67;87.99;98141.23;270739;1268;22525;-89
2023/04/13 20:05:38;;;;;;;41.40;27.50;;;;;;;9.68;88.53;98139.67;270128;1267;23879;-89
2023/04/13 20:12:20;;;;;;;45.30;28.80;;;;;;;9.62;88.97;98137.31;271189;1269;22314;-89
2023/04/13 20:18:45;;;;;;;47.10;28.60;;;;;;;9.59;89.25;98130.67;272340;1267;22790;-88
2023/04/13 20:24:52;;;;;;;46.50;28.80;;;;;;;9.57;89.16;98131.85;271588;1269;22259;-88
2023/04/13 20:30:54;;;;;;;41.40;28.10;;;;;;;9.47;89.13;98133.01;273735;1267;23413;-88
2023/04/13 20:37:00;;;;;;;41.20;28.30;;;;;;;9.37;89.53;98134.47;272861;1259;22597;-88
2023/04/13 20:43:19;;;;;;;39.80;27.30;;;;;;;9.36;90.34;98133.36;273820;1270;22431;-90
2023/04/13 20:50:03;;;;;;;44.20;27.90;;;;;;;9.37;90.59;98132.75;272106;1270;22613;-89
2023/04/13 20:56:12;;;;;;;46.60;29.40;;;;;;;9.31;90.24;98135.79;270267;1268;26321;-88
2023/04/13 21:02:18;;;;;;;44.90;30.80;;;;;;;9.17;90.28;98134.64;270200;1268;22635;-89
2023/04/13 21:08:20;;;;;;;44.90;28.00;;;;;;;9.14;91.59;98138.88;269748;1268;27633;-89
2023/04/13 21:14:36;;;;;;;40.10;29.10;;;;;;;9.15;92.38;98134.19;270935;1268;22549;-89
2023/04/13 21:21:22;;;;;;;37.80;27.10;;;;;;;9.12;92.27;98135.42;272811;1263;22324;-89
2023/04/13 21:27:37;;;;;;;42.80;29.70;;;;;;;9.03;92.16;98135.55;273852;1271;22213;-89
2023/04/13 21:34:06;;;;;;;37.60;28.00;;;;;;;8.95;93.21;98138.71;273018;1269;22804;-88
2023/04/13 21:40:28;;;;;;;45.70;30.30;;;;;;;8.98;94.15;98137.16;269926;1261;22547;-89
2023/04/13 21:47:20;;;;;;;45.50;30.10;;;;;;;8.98;94.74;98128.66;269762;1269;22411;-89
2023/04/13 21:53:47;;;;;;;44.90;30.30;;;;;;;8.98;94.94;98125.77;271803;1269;22547;-90
2023/04/13 22:00:38;;;;;;;47.70;32.10;;;;;;;8.92;94.03;98125.36;270307;1269;22574;-89
2023/04/13 22:07:14;;;;;;;51.40;35.10;;;;;;;8.73;94.19;98126.61;270083;1267;23200;-88
2023/04/13 22:13:22;;;;;;;43.90;32.20;;;;;;;8.68;95.81;98121.06;269644;1269;25334;-89
2023/04/13 22:20:28;;;;;;;50.40;32.90;;;;;;;8.72;96.42;98124.42;271156;1267;22534;-89
2023/04/13 22:27:11;;;;;;;51.90;34.00;;;;;;;8.64;95.83;98124.23;271381;1268;22216;-87
2023/04/13 22:33:35;;;;;;;53.20;35.60;;;;;;;8.58;96.73;98126.54;271347;1276;22442;-89
2023/04/13 22:40:38;;;;;;;42.20;27.40;;;;;;;8.60;97.37;98126.15;272550;1263;23141;-88
2023/04/13 22:47:20;;;;;;;60.80;40.70;;;;;;;8.62;97.69;98117.60;270366;1268;23173;-88
2023/04/13 22:54:05;;;;;;;61.10;39.80;;;;;;;8.57;98.13;98102.54;270947;1269;24202;-88
2023/04/13 23:00:27;;;;;;;60.60;40.00;;;;;;;8.56;98.18;98092.39;272118;1268;22218;-88
2023/04/13 23:06:45;;;;;;;62.30;38.20;;;;;;;8.45;97.35;98096.08;273666;1270;22373;-87
2023/04/13 23:13:21;;;;;;;58.10;38.10;;;;;;;8.40;98.25;98099.79;273736;1269;22197;-88
2023/04/13 23:20:15;;;;;;;65.70;42.70;;;;;;;8.44;99.16;98100.52;273210;1268;22342;-88
2023/04/13 23:27:26;;;;;;;64.00;40.40;;;;;;;8.46;99.02;98093.98;272407;1277;22230;-88
2023/04/13 23:34:03;;;;;;;63.40;43.30;;;;;;;8.44;98.93;98095.06;273361;1268;23032;-87
2023/04/13 23:40:21;;;;;;;64.10;41.60;;;;;;;8.43;99.31;98100.13;273960;1269;23195;-88
2023/04/13 23:46:42;;;;;;;65.80;42.70;;;;;;;8.46;99.85;98078.48;273633;1269;23806;-88
2023/04/13 23:52:46;;;;;;;58.70;39.00;;;;;;;8.46;99.89;98073.02;273959;1269;23289;-87
2023/04/13 23:59:20;;;;;;;66.10;44.20;;;;;;;8.44;99.98;98072.23;273815;1269;22308;-88
